sensor_id;sensor_type;location;lat;lon;timestamp;pressure;altitude;pressure_sealevel;temperature;humidity
29839;BME280;18669;53.356;-1.464;2023-05-10T00:01:48;99983.03;;;11.51;100.00
29839;BME280;18669;53.356;-1.464;2023-05-10T00:04:33;99980.19;;;11.57;100.00
29839;BME280;18669;53.356;-1.464;2023-05-10T00:07:18;99966.59;;;11.44;100.00
29839;BME280;18669;53.356;-1.464;2023-05-10T00:10:03;99984.75;;;11.52;100.00
29839;BME280;18669;53.356;-1.464;2023-05-10T00:12:48;99995.41;;;11.49;100.00
29839;BME280;18669;53.356;-1.464;2023-05-10T00:15:33;99992.91;;;11.46;100.00
29839;BME280;18669;53.356;-1.464;2023-05-10T00:18:19;99995.56;;;11.44;100.00
29839;BME280;18669;53.356;-1.464;2023-05-10T00:21:04;99998.28;;;11.43;100.00
29839;BME280;18669;53.356;-1.464;2023-05-10T00:23:49;99991.41;;;11.37;100.00
29839;BME280;18669;53.356;-1.464;2023-05-10T00:26:34;99990.13;;;11.49;100.00
29839;BME280;18669;53.356;-1.464;2023-05-10T00:29:19;99992.75;;;11.49;100.00
29839;BME280;18669;53.356;-1.464;2023-05-10T00:32:04;99984.72;;;11.54;100.00
29839;BME280;18669;53.356;-1.464;2023-05-10T00:34:49;99995.09;;;11.58;100.00
29839;BME280;18669;53.356;-1.464;2023-05-10T00:37:33;99986.91;;;11.66;100.00
29839;BME280;18669;53.356;-1.464;2023-05-10T00:40:18;99982.34;;;11.71;100.00
29839;BME280;18669;53.356;-1.464;2023-05-10T00:43:03;99978.63;;;11.77;100.00
29839;BME280;18669;53.356;-1.464;2023-05-10T00:45:49;99981.69;;;11.90;100.00
29839;BME280;18669;53.356;-1.464;2023-05-10T00:48:34;99978.81;;;11.96;100.00
29839;BME280;18669;53.356;-1.464;2023-05-10T00:51:19;99981.25;;;12.02;100.00
29839;BME280;18669;53.356;-1.464;2023-05-10T00:54:04;99966.34;;;12.01;100.00
29839;BME280;18669;53.356;-1.464;2023-05-10T00:56:49;99976.63;;;12.09;100.00
29839;BME280;18669;53.356;-1.464;2023-05-10T00:59:34;99973.69;;;12.17;100.00
29839;BME280;18669;53.356;-1.464;2023-05-10T01:02:19;99967.50;;;12.18;100.00
29839;BME280;18669;53.356;-1.464;2023-05-10T01:05:04;99972.53;;;12.24;100.00
29839;BME280;18669;53.356;-1.464;2023-05-10T01:07:49;99977.75;;;12.26;100.00
29839;BME280;18669;53.356;-1.464;2023-05-10T01:10:34;99968.41;;;12.17;100.00
29839;BME280;18669;53.356;-1.464;2023-05-10T01:13:31;99973.78;;;12.37;100.00
29839;BME280;18669;53.356;-1.464;2023-05-10T01:16:17;99969.91;;;12.24;100.00
29839;BME280;18669;53.356;-1.464;2023-05-10T01:19:04;99964.09;;;12.38;100.00
29839;BME280;18669;53.356;-1.464;2023-05-10T01:34:02;99976.19;;;12.44;100.00
29839;BME280;18669;53.356;-1.464;2023-05-10T01:36:58;99981.28;;;12.48;100.00
29839;BME280;18669;53.356;-1.464;2023-05-10T01:40:17;99974.19;;;12.50;100.00
29839;BME280;18669;53.356;-1.464;2023-05-10T01:43:08;99977.09;;;12.43;100.00
29839;BME280;18669;53.356;-1.464;2023-05-10T01:46:10;99982.38;;;12.43;100.00
29839;BME280;18669;53.356;-1.464;2023-05-10T01:49:00;99980.91;;;12.35;100.00
29839;BME280;18669;53.356;-1.464;2023-05-10T01:51:50;99984.41;;;12.36;100.00
29839;BME280;18669;53.356;-1.464;2023-05-10T01:54:38;99982.91;;;12.29;100.00
29839;BME280;18669;53.356;-1.464;2023-05-10T01:57:27;99987.16;;;12.33;100.00
29839;BME280;18669;53.356;-1.464;2023-05-10T02:00:18;99992.53;;;12.30;100.00
29839;BME280;18669;53.356;-1.464;2023-05-10T02:03:06;99989.06;;;12.29;100.00
29839;BME280;18669;53.356;-1.464;2023-05-10T02:05:52;99985.16;;;12.16;100.00
29839;BME280;18669;53.356;-1.464;2023-05-10T02:08:38;99988.88;;;12.34;100.00
29839;BME280;18669;53.356;-1.464;2023-05-10T02:11:24;99970.78;;;12.01;100.00
29839;BME280;18669;53.356;-1.464;2023-05-10T02:14:11;99987.22;;;12.07;100.00
29839;BME280;18669;53.356;-1.464;2023-05-10T02:16:56;99998.44;;;12.13;100.00
29839;BME280;18669;53.356;-1.464;2023-05-10T02:19:43;99989.13;;;12.04;100.00
29839;BME280;18669;53.356;-1.464;2023-05-10T02:22:28;100003.16;;;12.04;100.00
29839;BME280;18669;53.356;-1.464;2023-05-10T02:25:13;100000.34;;;12.09;100.00
29839;BME280;18669;53.356;-1.464;2023-05-10T02:28:02;100002.88;;;12.12;100.00
29839;BME280;18669;53.356;-1.464;2023-05-10T02:30:48;100003.25;;;12.01;100.00
29839;BME280;18669;53.356;-1.464;2023-05-10T02:33:33;100010.56;;;11.93;100.00
29839;BME280;18669;53.356;-1.464;2023-05-10T02:36:20;100013.22;;;11.93;100.00
29839;BME280;18669;53.356;-1.464;2023-05-10T02:39:06;100011.91;;;11.79;100.00
29839;BME280;18669;53.356;-1.464;2023-05-10T02:41:54;100000.22;;;11.63;100.00
29839;BME280;18669;53.356;-1.464;2023-05-10T02:44:41;100011.66;;;11.62;100.00
29839;BME280;18669;53.356;-1.464;2023-05-10T02:47:28;100006.66;;;11.54;100.00
29839;BME280;18669;53.356;-1.464;2023-05-10T02:50:13;100009.63;;;11.45;100.00
29839;BME280;18669;53.356;-1.464;2023-05-10T02:53:01;100011.44;;;11.43;100.00
29839;BME280;18669;53.356;-1.464;2023-05-10T02:55:51;100012.38;;;11.40;100.00
29839;BME280;18669;53.356;-1.464;2023-05-10T02:58:36;100018.19;;;11.25;100.00
29839;BME280;18669;53.356;-1.464;2023-05-10T03:01:21;100008.06;;;11.12;100.00
29839;BME280;18669;53.356;-1.464;2023-05-10T03:04:06;100017.75;;;11.12;100.00
29839;BME280;18669;53.356;-1.464;2023-05-10T03:06:51;100008.34;;;11.03;100.00
29839;BME280;18669;53.356;-1.464;2023-05-10T03:09:37;100017.31;;;10.97;100.00
29839;BME280;18669;53.356;-1.464;2023-05-10T03:13:44;100017.88;;;11.07;100.00
29839;BME280;18669;53.356;-1.464;2023-05-10T03:16:14;100015.59;;;10.96;100.00
29839;BME280;18669;53.356;-1.464;2023-05-10T03:19:30;100014.94;;;10.89;100.00
29839;BME280;18669;53.356;-1.464;2023-05-10T03:22:23;100012.63;;;10.79;100.00
29839;BME280;18669;53.356;-1.464;2023-05-10T03:25:10;100007.69;;;10.68;100.00
29839;BME280;18669;53.356;-1.464;2023-05-10T03:27:57;100016.69;;;10.60;100.00
29839;BME280;18669;53.356;-1.464;2023-05-10T03:30:43;100012.44;;;10.56;100.00
29839;BME280;18669;53.356;-1.464;2023-05-10T03:33:29;100010.28;;;10.41;100.00
29839;BME280;18669;53.356;-1.464;2023-05-10T03:36:14;100019.97;;;10.39;100.00
29839;BME280;18669;53.356;-1.464;2023-05-10T03:38:59;100018.38;;;10.32;100.00
29839;BME280;18669;53.356;-1.464;2023-05-10T03:41:43;100017.81;;;10.22;100.00
29839;BME280;18669;53.356;-1.464;2023-05-10T03:44:28;100021.25;;;10.24;100.00
29839;BME280;18669;53.356;-1.464;2023-05-10T03:47:13;100010.25;;;10.09;100.00
29839;BME280;18669;53.356;-1.464;2023-05-10T03:49:58;100014.59;;;10.12;100.00
29839;BME280;18669;53.356;-1.464;2023-05-10T03:52:42;100024.84;;;10.21;100.00
29839;BME280;18669;53.356;-1.464;2023-05-10T03:55:28;100022.38;;;10.15;100.00
29839;BME280;18669;53.356;-1.464;2023-05-10T03:58:14;100019.84;;;10.12;100.00
29839;BME280;18669;53.356;-1.464;2023-05-10T04:00:58;100030.59;;;10.04;100.00
29839;BME280;18669;53.356;-1.464;2023-05-10T04:03:43;100027.06;;;10.05;100.00
29839;BME280;18669;53.356;-1.464;2023-05-10T04:06:29;100008.16;;;9.91;100.00
29839;BME280;18669;53.356;-1.464;2023-05-10T04:09:13;100029.94;;;9.96;100.00
29839;BME280;18669;53.356;-1.464;2023-05-10T04:11:59;100032.50;;;9.97;100.00
29839;BME280;18669;53.356;-1.464;2023-05-10T04:14:45;100031.75;;;9.92;100.00
29839;BME280;18669;53.356;-1.464;2023-05-10T04:17:30;100025.69;;;9.90;100.00
29839;BME280;18669;53.356;-1.464;2023-05-10T04:20:15;100037.97;;;9.90;100.00
29839;BME280;18669;53.356;-1.464;2023-05-10T04:23:00;100026.66;;;9.88;100.00
29839;BME280;18669;53.356;-1.464;2023-05-10T04:25:45;100027.41;;;9.91;100.00
29839;BME280;18669;53.356;-1.464;2023-05-10T04:28:30;100009.31;;;9.80;100.00
29839;BME280;18669;53.356;-1.464;2023-05-10T04:31:14;100020.72;;;9.79;100.00
29839;BME280;18669;53.356;-1.464;2023-05-10T04:33:59;100019.66;;;9.87;100.00
29839;BME280;18669;53.356;-1.464;2023-05-10T04:36:44;100036.00;;;9.98;100.00
29839;BME280;18669;53.356;-1.464;2023-05-10T04:39:29;100026.91;;;10.10;100.00
29839;BME280;18669;53.356;-1.464;2023-05-10T04:42:14;100028.25;;;10.25;100.00
29839;BME280;18669;53.356;-1.464;2023-05-10T04:44:59;100026.88;;;10.43;100.00
29839;BME280;18669;53.356;-1.464;2023-05-10T04:47:44;100028.34;;;10.52;100.00
29839;BME280;18669;53.356;-1.464;2023-05-10T04:50:29;100028.63;;;10.72;100.00
29839;BME280;18669;53.356;-1.464;2023-05-10T04:53:14;100028.41;;;10.79;100.00
29839;BME280;18669;53.356;-1.464;2023-05-10T04:55:59;100025.41;;;10.91;100.00
29839;BME280;18669;53.356;-1.464;2023-05-10T04:58:43;100023.69;;;10.90;100.00
29839;BME280;18669;53.356;-1.464;2023-05-10T05:01:28;100034.75;;;11.00;100.00
29839;BME280;18669;53.356;-1.464;2023-05-10T05:04:13;100042.63;;;11.01;100.00
29839;BME280;18669;53.356;-1.464;2023-05-10T05:06:59;100045.97;;;11.07;100.00
29839;BME280;18669;53.356;-1.464;2023-05-10T05:09:43;100041.31;;;11.15;100.00
29839;BME280;18669;53.356;-1.464;2023-05-10T05:12:28;100049.19;;;11.15;100.00
29839;BME280;18669;53.356;-1.464;2023-05-10T05:15:13;100049.91;;;11.20;100.00
29839;BME280;18669;53.356;-1.464;2023-05-10T05:17:59;100058.63;;;11.22;100.00
29839;BME280;18669;53.356;-1.464;2023-05-10T05:20:44;100048.16;;;11.21;100.00
29839;BME280;18669;53.356;-1.464;2023-05-10T05:23:29;100054.03;;;11.29;100.00
29839;BME280;18669;53.356;-1.464;2023-05-10T05:26:14;100058.34;;;11.31;100.00
29839;BME280;18669;53.356;-1.464;2023-05-10T05:28:59;100060.00;;;11.34;100.00
29839;BME280;18669;53.356;-1.464;2023-05-10T05:31:44;100062.53;;;11.37;100.00
29839;BME280;18669;53.356;-1.464;2023-05-10T05:34:28;100067.69;;;11.40;100.00
29839;BME280;18669;53.356;-1.464;2023-05-10T05:37:18;100071.66;;;11.54;100.00
29839;BME280;18669;53.356;-1.464;2023-05-10T05:40:03;100071.16;;;11.42;100.00
29839;BME280;18669;53.356;-1.464;2023-05-10T05:42:48;100079.00;;;11.44;100.00
29839;BME280;18669;53.356;-1.464;2023-05-10T05:45:34;100082.50;;;11.44;100.00
29839;BME280;18669;53.356;-1.464;2023-05-10T05:48:19;100077.88;;;11.51;100.00
29839;BME280;18669;53.356;-1.464;2023-05-10T05:51:03;100067.31;;;11.53;100.00
29839;BME280;18669;53.356;-1.464;2023-05-10T05:53:48;100077.31;;;11.68;100.00
29839;BME280;18669;53.356;-1.464;2023-05-10T05:56:33;100078.69;;;11.80;100.00
29839;BME280;18669;53.356;-1.464;2023-05-10T05:59:18;100080.16;;;11.87;100.00
29839;BME280;18669;53.356;-1.464;2023-05-10T06:02:03;100080.03;;;11.92;100.00
29839;BME280;18669;53.356;-1.464;2023-05-10T06:04:48;100080.66;;;12.00;100.00
29839;BME280;18669;53.356;-1.464;2023-05-10T06:07:32;100086.59;;;12.05;100.00
29839;BME280;18669;53.356;-1.464;2023-05-10T06:10:17;100081.81;;;12.17;100.00
29839;BME280;18669;53.356;-1.464;2023-05-10T06:13:02;100069.03;;;12.30;100.00
29839;BME280;18669;53.356;-1.464;2023-05-10T06:15:47;100077.47;;;12.39;100.00
29839;BME280;18669;53.356;-1.464;2023-05-10T06:18:32;100077.13;;;12.49;100.00
29839;BME280;18669;53.356;-1.464;2023-05-10T06:21:17;100085.50;;;12.60;100.00
29839;BME280;18669;53.356;-1.464;2023-05-10T06:24:02;100080.66;;;12.72;100.00
29839;BME280;18669;53.356;-1.464;2023-05-10T06:26:47;100072.50;;;12.78;100.00
29839;BME280;18669;53.356;-1.464;2023-05-10T06:29:34;100069.31;;;12.92;100.00
29839;BME280;18669;53.356;-1.464;2023-05-10T06:32:18;100079.28;;;13.07;100.00
29839;BME280;18669;53.356;-1.464;2023-05-10T06:35:03;100078.84;;;13.18;100.00
29839;BME280;18669;53.356;-1.464;2023-05-10T06:37:49;100076.31;;;13.37;100.00
29839;BME280;18669;53.356;-1.464;2023-05-10T06:40:34;100083.84;;;13.48;100.00
29839;BME280;18669;53.356;-1.464;2023-05-10T06:43:20;100082.31;;;13.63;100.00
29839;BME280;18669;53.356;-1.464;2023-05-10T06:46:05;100079.38;;;13.71;100.00
29839;BME280;18669;53.356;-1.464;2023-05-10T06:48:51;100095.28;;;13.69;100.00
29839;BME280;18669;53.356;-1.464;2023-05-10T06:51:36;100092.34;;;13.77;100.00
29839;BME280;18669;53.356;-1.464;2023-05-10T06:54:21;100097.16;;;13.88;100.00
29839;BME280;18669;53.356;-1.464;2023-05-10T06:57:05;100085.59;;;13.91;100.00
29839;BME280;18669;53.356;-1.464;2023-05-10T06:59:50;100099.88;;;14.07;100.00
29839;BME280;18669;53.356;-1.464;2023-05-10T07:02:36;100082.72;;;14.16;100.00
29839;BME280;18669;53.356;-1.464;2023-05-10T07:05:21;100095.25;;;14.31;100.00
29839;BME280;18669;53.356;-1.464;2023-05-10T07:08:06;100081.97;;;14.33;100.00
29839;BME280;18669;53.356;-1.464;2023-05-10T07:10:52;100090.06;;;14.49;100.00
29839;BME280;18669;53.356;-1.464;2023-05-10T07:13:36;100095.75;;;14.60;100.00
29839;BME280;18669;53.356;-1.464;2023-05-10T07:16:23;100097.78;;;14.74;100.00
29839;BME280;18669;53.356;-1.464;2023-05-10T07:19:08;100100.06;;;14.82;100.00
29839;BME280;18669;53.356;-1.464;2023-05-10T07:21:53;100089.47;;;14.82;100.00
29839;BME280;18669;53.356;-1.464;2023-05-10T07:24:38;100103.63;;;15.00;100.00
29839;BME280;18669;53.356;-1.464;2023-05-10T07:27:23;100102.28;;;15.11;100.00
29839;BME280;18669;53.356;-1.464;2023-05-10T07:30:08;100105.38;;;15.19;100.00
29839;BME280;18669;53.356;-1.464;2023-05-10T07:32:53;100092.31;;;15.16;100.00
29839;BME280;18669;53.356;-1.464;2023-05-10T07:35:38;100105.66;;;15.32;100.00
29839;BME280;18669;53.356;-1.464;2023-05-10T07:38:23;100094.84;;;15.54;100.00
29839;BME280;18669;53.356;-1.464;2023-05-10T07:41:08;100102.03;;;15.70;100.00
29839;BME280;18669;53.356;-1.464;2023-05-10T07:43:53;100103.31;;;15.98;100.00
29839;BME280;18669;53.356;-1.464;2023-05-10T07:46:38;100098.19;;;16.28;100.00
29839;BME280;18669;53.356;-1.464;2023-05-10T07:49:23;100086.91;;;17.06;100.00
29839;BME280;18669;53.356;-1.464;2023-05-10T07:52:10;100079.97;;;17.81;89.85
29839;BME280;18669;53.356;-1.464;2023-05-10T07:54:55;100082.13;;;18.48;82.32
29839;BME280;18669;53.356;-1.464;2023-05-10T07:57:41;100084.94;;;19.03;75.08
29839;BME280;18669;53.356;-1.464;2023-05-10T08:00:27;100086.03;;;19.13;76.26
29839;BME280;18669;53.356;-1.464;2023-05-10T08:03:11;100084.03;;;18.60;69.24
29839;BME280;18669;53.356;-1.464;2023-05-10T08:05:56;100087.47;;;17.88;75.00
29839;BME280;18669;53.356;-1.464;2023-05-10T08:08:41;100096.91;;;17.33;81.04
29839;BME280;18669;53.356;-1.464;2023-05-10T08:11:27;100097.88;;;17.00;85.39
29839;BME280;18669;53.356;-1.464;2023-05-10T08:14:13;100100.75;;;17.43;88.85
29839;BME280;18669;53.356;-1.464;2023-05-10T08:16:58;100111.25;;;18.22;78.24
29839;BME280;18669;53.356;-1.464;2023-05-10T08:19:43;100098.81;;;18.52;76.30
29839;BME280;18669;53.356;-1.464;2023-05-10T08:22:29;100105.59;;;18.99;69.20
29839;BME280;18669;53.356;-1.464;2023-05-10T08:25:15;100096.97;;;19.23;65.44
29839;BME280;18669;53.356;-1.464;2023-05-10T08:28:02;100108.16;;;18.86;65.35
29839;BME280;18669;53.356;-1.464;2023-05-10T08:30:49;100105.44;;;18.73;65.58
29839;BME280;18669;53.356;-1.464;2023-05-10T08:33:35;100101.63;;;18.63;65.75
29839;BME280;18669;53.356;-1.464;2023-05-10T08:36:21;100106.44;;;18.85;63.35
29839;BME280;18669;53.356;-1.464;2023-05-10T08:39:08;100108.44;;;19.11;63.98
29839;BME280;18669;53.356;-1.464;2023-05-10T08:41:55;100101.34;;;19.64;61.97
29839;BME280;18669;53.356;-1.464;2023-05-10T08:44:43;100092.22;;;20.59;59.17
29839;BME280;18669;53.356;-1.464;2023-05-10T08:47:29;100094.66;;;21.12;56.26
29839;BME280;18669;53.356;-1.464;2023-05-10T08:50:14;100080.81;;;22.37;51.23
29839;BME280;18669;53.356;-1.464;2023-05-10T08:53:03;100086.00;;;23.07;48.84
29839;BME280;18669;53.356;-1.464;2023-05-10T08:55:48;100083.16;;;23.20;47.50
29839;BME280;18669;53.356;-1.464;2023-05-10T08:58:34;100086.50;;;23.98;44.78
29839;BME280;18669;53.356;-1.464;2023-05-10T09:01:20;100079.59;;;24.06;43.92
29839;BME280;18669;53.356;-1.464;2023-05-10T09:04:05;100102.06;;;23.30;44.58
29839;BME280;18669;53.356;-1.464;2023-05-10T09:06:50;100091.06;;;22.89;46.29
29839;BME280;18669;53.356;-1.464;2023-05-10T09:09:36;100076.72;;;23.97;43.30
29839;BME280;18669;53.356;-1.464;2023-05-10T09:12:22;100081.56;;;23.61;44.29
29839;BME280;18669;53.356;-1.464;2023-05-10T09:15:09;100080.53;;;22.97;45.34
29839;BME280;18669;53.356;-1.464;2023-05-10T09:17:54;100084.81;;;21.97;46.83
29839;BME280;18669;53.356;-1.464;2023-05-10T09:20:39;100098.56;;;20.19;49.44
29839;BME280;18669;53.356;-1.464;2023-05-10T09:23:24;100097.59;;;19.54;52.33
29839;BME280;18669;53.356;-1.464;2023-05-10T09:26:15;100099.03;;;18.90;54.67
29839;BME280;18669;53.356;-1.464;2023-05-10T09:29:01;100106.75;;;18.66;56.28
29839;BME280;18669;53.356;-1.464;2023-05-10T09:31:49;100108.69;;;18.35;57.78
29839;BME280;18669;53.356;-1.464;2023-05-10T09:34:39;100105.72;;;18.25;59.01
29839;BME280;18669;53.356;-1.464;2023-05-10T09:37:30;100108.47;;;18.09;61.07
29839;BME280;18669;53.356;-1.464;2023-05-10T09:40:20;100102.13;;;17.81;65.74
29839;BME280;18669;53.356;-1.464;2023-05-10T09:43:08;100106.50;;;17.66;68.48
29839;BME280;18669;53.356;-1.464;2023-05-10T09:45:55;100113.41;;;17.54;68.92
29839;BME280;18669;53.356;-1.464;2023-05-10T09:48:43;100115.69;;;17.46;72.32
29839;BME280;18669;53.356;-1.464;2023-05-10T09:51:28;100112.75;;;17.51;77.89
29839;BME280;18669;53.356;-1.464;2023-05-10T09:54:15;100109.56;;;18.36;70.46
29839;BME280;18669;53.356;-1.464;2023-05-10T09:57:01;100111.28;;;18.93;68.21
29839;BME280;18669;53.356;-1.464;2023-05-10T09:59:47;100103.63;;;19.43;63.53
29839;BME280;18669;53.356;-1.464;2023-05-10T10:02:32;100096.59;;;21.10;56.18
29839;BME280;18669;53.356;-1.464;2023-05-10T10:05:17;100094.09;;;22.27;51.45
29839;BME280;18669;53.356;-1.464;2023-05-10T10:08:04;100088.88;;;23.38;47.40
29839;BME280;18669;53.356;-1.464;2023-05-10T10:10:49;100088.28;;;24.40;44.77
29839;BME280;18669;53.356;-1.464;2023-05-10T10:13:34;100089.88;;;24.84;43.48
29839;BME280;18669;53.356;-1.464;2023-05-10T10:16:20;100094.19;;;23.71;44.62
29839;BME280;18669;53.356;-1.464;2023-05-10T10:19:06;100095.53;;;23.00;45.79
29839;BME280;18669;53.356;-1.464;2023-05-10T10:21:50;100079.25;;;22.34;48.06
29839;BME280;18669;53.356;-1.464;2023-05-10T10:24:35;100095.78;;;21.45;50.20
29839;BME280;18669;53.356;-1.464;2023-05-10T10:30:20;100086.84;;;23.07;45.65
29839;BME280;18669;53.356;-1.464;2023-05-10T10:36:15;100083.84;;;23.33;44.38
29839;BME280;18669;53.356;-1.464;2023-05-10T10:39:01;100075.56;;;24.11;44.01
29839;BME280;18669;53.356;-1.464;2023-05-10T10:41:54;100072.31;;;24.99;41.48
29839;BME280;18669;53.356;-1.464;2023-05-10T10:44:40;100076.59;;;23.99;42.91
29839;BME280;18669;53.356;-1.464;2023-05-10T10:47:28;100081.84;;;22.59;45.54
29839;BME280;18669;53.356;-1.464;2023-05-10T10:50:17;100076.91;;;21.36;48.01
29839;BME280;18669;53.356;-1.464;2023-05-10T10:53:10;100083.22;;;20.73;49.63
29839;BME280;18669;53.356;-1.464;2023-05-10T10:56:05;100091.06;;;19.98;53.28
29839;BME280;18669;53.356;-1.464;2023-05-10T10:58:51;100084.34;;;19.52;54.28
29839;BME280;18669;53.356;-1.464;2023-05-10T11:01:41;100083.88;;;19.33;56.92
29839;BME280;18669;53.356;-1.464;2023-05-10T11:04:28;100089.78;;;18.96;58.72
29839;BME280;18669;53.356;-1.464;2023-05-10T11:07:26;100088.97;;;18.67;62.18
29839;BME280;18669;53.356;-1.464;2023-05-10T11:10:11;100093.63;;;18.19;74.19
29839;BME280;18669;53.356;-1.464;2023-05-10T11:13:03;100086.72;;;17.86;92.02
29839;BME280;18669;53.356;-1.464;2023-05-10T11:15:49;100102.28;;;17.48;100.00
29839;BME280;18669;53.356;-1.464;2023-05-10T11:18:37;100091.38;;;17.52;100.00
29839;BME280;18669;53.356;-1.464;2023-05-10T11:21:22;100088.81;;;17.51;99.60
29839;BME280;18669;53.356;-1.464;2023-05-10T11:24:13;100095.09;;;17.95;99.75
29839;BME280;18669;53.356;-1.464;2023-05-10T11:26:58;100087.84;;;18.56;90.60
29839;BME280;18669;53.356;-1.464;2023-05-10T11:29:43;100078.75;;;19.02;73.94
29839;BME280;18669;53.356;-1.464;2023-05-10T11:32:29;100080.06;;;19.37;75.00
29839;BME280;18669;53.356;-1.464;2023-05-10T11:35:14;100058.47;;;19.80;69.29
29839;BME280;18669;53.356;-1.464;2023-05-10T11:37:59;100062.09;;;21.43;63.44
29839;BME280;18669;53.356;-1.464;2023-05-10T11:40:44;100066.75;;;23.67;54.91
29839;BME280;18669;53.356;-1.464;2023-05-10T11:43:28;100059.41;;;24.73;46.81
29839;BME280;18669;53.356;-1.464;2023-05-10T11:46:15;100057.16;;;27.18;41.72
29839;BME280;18669;53.356;-1.464;2023-05-10T11:49:01;100058.59;;;28.54;37.53
29839;BME280;18669;53.356;-1.464;2023-05-10T11:51:48;100043.78;;;28.32;38.27
29839;BME280;18669;53.356;-1.464;2023-05-10T11:54:33;100041.16;;;28.14;38.91
29839;BME280;18669;53.356;-1.464;2023-05-10T11:57:19;100051.97;;;26.61;40.57
29839;BME280;18669;53.356;-1.464;2023-05-10T12:00:05;100046.41;;;24.98;42.57
29839;BME280;18669;53.356;-1.464;2023-05-10T12:02:50;100051.78;;;23.20;46.89
29839;BME280;18669;53.356;-1.464;2023-05-10T12:05:36;100056.91;;;21.88;49.91
29839;BME280;18669;53.356;-1.464;2023-05-10T12:08:25;100064.88;;;20.55;63.04
29839;BME280;18669;53.356;-1.464;2023-05-10T12:11:12;100083.72;;;18.65;97.36
29839;BME280;18669;53.356;-1.464;2023-05-10T12:14:04;100086.19;;;17.35;100.00
29839;BME280;18669;53.356;-1.464;2023-05-10T12:16:49;100107.63;;;16.34;100.00
29839;BME280;18669;53.356;-1.464;2023-05-10T12:19:39;100107.81;;;16.13;100.00
29839;BME280;18669;53.356;-1.464;2023-05-10T12:22:24;100105.84;;;15.81;100.00
29839;BME280;18669;53.356;-1.464;2023-05-10T12:25:09;100113.34;;;15.73;100.00
29839;BME280;18669;53.356;-1.464;2023-05-10T12:27:57;100112.72;;;15.68;100.00
29839;BME280;18669;53.356;-1.464;2023-05-10T12:30:42;100113.16;;;15.41;100.00
29839;BME280;18669;53.356;-1.464;2023-05-10T12:33:37;100113.03;;;15.25;100.00
29839;BME280;18669;53.356;-1.464;2023-05-10T12:36:24;100111.56;;;15.00;100.00
29839;BME280;18669;53.356;-1.464;2023-05-10T12:39:09;100117.81;;;14.99;100.00
29839;BME280;18669;53.356;-1.464;2023-05-10T12:41:54;100115.94;;;15.20;100.00
29839;BME280;18669;53.356;-1.464;2023-05-10T12:44:39;100123.78;;;15.22;100.00
29839;BME280;18669;53.356;-1.464;2023-05-10T12:47:24;100120.75;;;15.49;100.00
29839;BME280;18669;53.356;-1.464;2023-05-10T12:50:09;100108.34;;;16.37;100.00
29839;BME280;18669;53.356;-1.464;2023-05-10T12:52:54;100110.34;;;17.62;100.00
29839;BME280;18669;53.356;-1.464;2023-05-10T12:55:39;100104.47;;;18.89;100.00
29839;BME280;18669;53.356;-1.464;2023-05-10T12:58:24;100100.50;;;19.64;100.00
29839;BME280;18669;53.356;-1.464;2023-05-10T13:01:09;100108.22;;;19.81;100.00
29839;BME280;18669;53.356;-1.464;2023-05-10T13:03:54;100107.34;;;20.21;100.00
29839;BME280;18669;53.356;-1.464;2023-05-10T13:06:39;100109.19;;;21.45;100.00
29839;BME280;18669;53.356;-1.464;2023-05-10T13:09:25;100096.53;;;22.42;95.83
29839;BME280;18669;53.356;-1.464;2023-05-10T13:12:10;100099.44;;;22.04;92.56
29839;BME280;18669;53.356;-1.464;2023-05-10T13:14:55;100096.69;;;20.84;100.00
29839;BME280;18669;53.356;-1.464;2023-05-10T13:17:40;100105.13;;;19.47;100.00
29839;BME280;18669;53.356;-1.464;2023-05-10T13:20:25;100095.81;;;18.42;100.00
29839;BME280;18669;53.356;-1.464;2023-05-10T13:23:10;100109.50;;;17.76;100.00
29839;BME280;18669;53.356;-1.464;2023-05-10T13:25:55;100112.97;;;17.15;100.00
29839;BME280;18669;53.356;-1.464;2023-05-10T13:28:40;100121.91;;;16.81;100.00
29839;BME280;18669;53.356;-1.464;2023-05-10T13:31:25;100143.22;;;16.30;100.00
29839;BME280;18669;53.356;-1.464;2023-05-10T13:34:10;100146.09;;;15.72;100.00
29839;BME280;18669;53.356;-1.464;2023-05-10T13:36:55;100145.31;;;15.16;100.00
29839;BME280;18669;53.356;-1.464;2023-05-10T13:39:40;100156.31;;;14.87;100.00
29839;BME280;18669;53.356;-1.464;2023-05-10T13:42:25;100142.94;;;14.51;100.00
29839;BME280;18669;53.356;-1.464;2023-05-10T13:45:10;100150.72;;;14.54;100.00
29839;BME280;18669;53.356;-1.464;2023-05-10T13:47:56;100155.38;;;14.69;100.00
29839;BME280;18669;53.356;-1.464;2023-05-10T13:50:42;100153.38;;;14.74;100.00
29839;BME280;18669;53.356;-1.464;2023-05-10T13:53:27;100133.13;;;14.93;100.00
29839;BME280;18669;53.356;-1.464;2023-05-10T13:56:12;100145.59;;;15.10;100.00
29839;BME280;18669;53.356;-1.464;2023-05-10T13:58:57;100142.66;;;15.16;100.00
29839;BME280;18669;53.356;-1.464;2023-05-10T14:01:42;100129.06;;;15.04;100.00
29839;BME280;18669;53.356;-1.464;2023-05-10T14:04:28;100134.34;;;15.04;100.00
29839;BME280;18669;53.356;-1.464;2023-05-10T14:07:13;100136.22;;;15.02;100.00
29839;BME280;18669;53.356;-1.464;2023-05-10T14:09:58;100135.34;;;15.02;100.00
29839;BME280;18669;53.356;-1.464;2023-05-10T14:12:42;100131.84;;;14.82;100.00
29839;BME280;18669;53.356;-1.464;2023-05-10T14:15:27;100129.69;;;15.10;100.00
29839;BME280;18669;53.356;-1.464;2023-05-10T14:18:12;100127.47;;;15.37;100.00
29839;BME280;18669;53.356;-1.464;2023-05-10T14:20:59;100131.34;;;15.66;100.00
29839;BME280;18669;53.356;-1.464;2023-05-10T14:23:43;100122.91;;;15.95;100.00
29839;BME280;18669;53.356;-1.464;2023-05-10T14:26:28;100125.63;;;15.93;100.00
29839;BME280;18669;53.356;-1.464;2023-05-10T14:29:13;100125.97;;;15.86;100.00
29839;BME280;18669;53.356;-1.464;2023-05-10T14:31:58;100125.63;;;15.93;100.00